Time;durP1;ratioP1;P1;durP2;ratioP2;P2;SDS_P1;SDS_P2;PMS_P1;PMS_P2;Temp;Humidity;BMP_temperature;BMP_pressure;BME280_temperature;BME280_humidity;BME280_pressure;Samples;Min_cycle;Max_cycle;Signal;HPM_P1;HPM_P2
2023/03/17 00:02:19;;;;;;;;;;;;;;;4.28;52.99;92777.72;2075078;69;20076;-74
2023/03/17 00:04:45;;;;;;;;;;;;;;;4.38;54.27;92784.13;2074835;69;20456;-73
2023/03/17 00:07:22;;;;;;;;;;;;;;;4.17;54.09;92776.13;2071731;69;20052;-73
2023/03/17 00:09:54;;;;;;;;;;;;;;;4.40;53.26;92780.78;2074922;69;20071;-73
2023/03/17 00:12:27;;;;;;;;;;;;;;;4.36;52.83;92769.31;2075057;69;20071;-74
2023/03/17 00:14:53;;;;;;;;;;;;;;;4.29;53.29;92768.78;2071903;69;20044;-73
2023/03/17 00:17:19;;;;;;;;;;;;;;;4.30;52.35;92767.47;2075368;69;20043;-73
2023/03/17 00:19:49;;;;;;;;;;;;;;;4.34;52.89;92772.66;2074900;69;20044;-73
2023/03/17 00:22:22;;;;;;;;;;;;;;;4.25;53.64;92773.25;2075312;69;20139;-74
2023/03/17 00:24:52;;;;;;;;;;;;;;;4.05;53.85;92767.47;2075164;69;20048;-72
2023/03/17 00:27:23;;;;;;;;;;;;;;;4.11;52.92;92760.94;2075077;69;20056;-74
2023/03/17 00:29:49;;;;;;;;;;;;;;;4.04;53.40;92754.09;2071529;69;20068;-74
2023/03/17 00:32:20;;;;;;;;;;;;;;;4.06;53.34;92752.22;2074783;69;20118;-74
2023/03/17 00:34:57;;;;;;;;;;;;;;;4.13;53.23;92752.75;2074808;69;20056;-73
2023/03/17 00:37:28;;;;;;;;;;;;;;;4.12;53.01;92751.97;2075208;69;20072;-72
2023/03/17 00:39:55;;;;;;;;;;;;;;;4.00;54.03;92762.13;2071752;69;20049;-73
2023/03/17 00:42:25;;;;;;;;;;;;;;;4.04;54.67;92762.47;2075174;69;20062;-75
2023/03/17 00:44:51;;;;;;;;;;;;;;;4.03;53.92;92767.28;2071617;69;20067;-74
2023/03/17 00:47:18;;;;;;;;;;;;;;;4.15;54.09;92756.44;2074831;69;20095;-72
2023/03/17 00:49:48;;;;;;;;;;;;;;;3.82;54.74;92759.25;2074982;69;20047;-73
2023/03/17 00:52:17;;;;;;;;;;;;;;;3.99;53.82;92761.38;2074947;69;20065;-72
2023/03/17 00:54:47;;;;;;;;;;;;;;;3.98;53.79;92759.13;2075109;69;20068;-72
2023/03/17 00:57:17;;;;;;;;;;;;;;;3.98;54.16;92753.56;2075021;69;20480;-74
2023/03/17 00:59:44;;;;;;;;;;;;;;;3.91;55.34;92749.53;2074948;69;20110;-72
2023/03/17 01:02:14;;;;;;;;;;;;;;;4.00;54.96;92754.50;2069128;69;20084;-74
2023/03/17 01:04:44;;;;;;;;;;;;;;;3.99;54.26;92755.81;2074139;69;20147;-73
2023/03/17 01:07:14;;;;;;;;;;;;;;;3.90;54.65;92745.28;2074681;69;20072;-73
2023/03/17 01:09:42;;;;;;;;;;;;;;;3.84;54.92;92750.31;2074892;69;20072;-72
2023/03/17 01:12:11;;;;;;;;;;;;;;;3.88;55.05;92739.53;2074486;69;20483;-73
2023/03/17 01:14:41;;;;;;;;;;;;;;;3.92;55.34;92739.13;2055364;70;20058;-74
2023/03/17 01:17:25;;;;;;;;;;;;;;;3.93;55.17;92729.47;2055653;69;20090;-73
2023/03/17 01:19:52;;;;;;;;;;;;;;;3.78;55.46;92722.69;2055731;69;20096;-74
2023/03/17 01:22:19;;;;;;;;;;;;;;;4.01;55.93;92728.09;2068594;69;20054;-73
2023/03/17 01:24:47;;;;;;;;;;;;;;;3.91;55.10;92718.16;2055891;70;20074;-74
2023/03/17 01:27:14;;;;;;;;;;;;;;;4.10;54.89;92729.53;2055479;69;20198;-72
2023/03/17 01:29:41;;;;;;;;;;;;;;;4.08;53.91;92723.81;2055699;69;20093;-74
2023/03/17 01:32:09;;;;;;;;;;;;;;;3.98;53.11;92728.50;2055612;70;20411;-74
2023/03/17 01:34:36;;;;;;;;;;;;;;;4.11;53.35;92719.88;2055530;69;20054;-73
2023/03/17 01:37:13;;;;;;;;;;;;;;;3.97;54.32;92727.03;2055728;69;20055;-73
2023/03/17 01:39:40;;;;;;;;;;;;;;;4.03;53.91;92730.31;2055679;69;20101;-74
2023/03/17 01:42:07;;;;;;;;;;;;;;;4.05;53.69;92736.81;2068655;69;20565;-73
2023/03/17 01:44:34;;;;;;;;;;;;;;;4.05;53.81;92727.72;2055554;70;20070;-73
2023/03/17 01:47:03;;;;;;;;;;;;;;;4.03;53.86;92717.16;2055586;69;20051;-74
2023/03/17 01:49:34;;;;;;;;;;;;;;;4.06;53.90;92715.25;2055450;69;20065;-72
2023/03/17 01:52:08;;;;;;;;;;;;;;;4.06;54.67;92712.47;2068584;69;20046;-73
2023/03/17 01:54:50;;;;;;;;;;;;;;;4.14;54.02;92715.94;2068555;69;20054;-73
2023/03/17 01:57:25;;;;;;;;;;;;;;;3.78;54.88;92711.56;2055601;69;20062;-73
2023/03/17 01:59:55;;;;;;;;;;;;;;;3.81;55.26;92707.66;2055608;69;20488;-74
2023/03/17 02:02:23;;;;;;;;;;;;;;;3.92;54.72;92705.72;2068664;69;20512;-73
2023/03/17 02:04:51;;;;;;;;;;;;;;;4.08;54.10;92702.25;2055787;69;20059;-74
2023/03/17 02:07:21;;;;;;;;;;;;;;;4.15;54.18;92688.81;2055683;70;20588;-73
2023/03/17 02:09:52;;;;;;;;;;;;;;;4.26;53.25;92689.13;2055503;70;20086;-74
2023/03/17 02:12:22;;;;;;;;;;;;;;;4.31;53.54;92692.97;2067914;69;20054;-74
2023/03/17 02:14:50;;;;;;;;;;;;;;;4.30;54.43;92683.84;2068260;69;20074;-74
2023/03/17 02:17:21;;;;;;;;;;;;;;;4.42;52.31;92686.19;2055540;69;20082;-74
2023/03/17 02:19:48;;;;;;;;;;;;;;;4.19;53.20;92680.81;2068557;69;20099;-74
2023/03/17 02:22:16;;;;;;;;;;;;;;;4.24;52.96;92688.19;2055601;69;20053;-74
2023/03/17 02:24:48;;;;;;;;;;;;;;;4.27;53.22;92682.22;2068443;69;20762;-74
2023/03/17 02:27:21;;;;;;;;;;;;;;;4.32;53.72;92683.31;2055481;69;20051;-74
2023/03/17 02:29:51;;;;;;;;;;;;;;;3.98;54.38;92681.88;2069071;69;20054;-74
2023/03/17 02:32:19;;;;;;;;;;;;;;;4.19;54.56;92684.31;2055324;69;20050;-74
2023/03/17 02:34:46;;;;;;;;;;;;;;;4.20;54.53;92687.84;2055330;70;20077;-74
2023/03/17 02:37:14;;;;;;;;;;;;;;;4.12;54.31;92687.91;2055669;69;20061;-74
2023/03/17 02:39:44;;;;;;;;;;;;;;;4.11;54.58;92686.44;2055511;69;20097;-74
2023/03/17 02:42:11;;;;;;;;;;;;;;;4.17;54.25;92694.56;2055498;70;20119;-73
2023/03/17 02:44:39;;;;;;;;;;;;;;;4.06;54.00;92699.28;2055519;69;20238;-74
2023/03/17 02:47:07;;;;;;;;;;;;;;;4.13;54.58;92699.81;2055568;69;20153;-74
2023/03/17 02:49:34;;;;;;;;;;;;;;;4.18;53.90;92696.78;2055316;69;20051;-74
2023/03/17 02:52:04;;;;;;;;;;;;;;;4.23;53.98;92701.38;2055673;70;20049;-74
2023/03/17 02:54:31;;;;;;;;;;;;;;;4.29;53.94;92695.56;2055548;69;20093;-74
2023/03/17 02:56:57;;;;;;;;;;;;;;;3.98;54.72;92697.84;2068773;69;20094;-72
2023/03/17 02:59:25;;;;;;;;;;;;;;;3.52;57.48;92698.16;2055528;69;20065;-73
2023/03/17 03:01:52;;;;;;;;;;;;;;;3.88;55.99;92697.00;2055523;69;20057;-74
2023/03/17 03:04:19;;;;;;;;;;;;;;;3.91;55.52;92698.66;2056342;69;20081;-75
2023/03/17 03:06:46;;;;;;;;;;;;;;;3.97;56.05;92697.13;2055557;69;20062;-74
2023/03/17 03:09:14;;;;;;;;;;;;;;;3.98;55.54;92695.81;2055392;69;20050;-74
2023/03/17 03:11:41;;;;;;;;;;;;;;;3.94;55.99;92692.72;2065715;69;20069;-74
2023/03/17 03:14:09;;;;;;;;;;;;;;;4.04;55.34;92696.34;2068279;69;20061;-74
2023/03/17 03:16:36;;;;;;;;;;;;;;;4.00;55.45;92692.47;2055470;69;20154;-73
2023/03/17 03:19:33;;;;;;;;;;;;;;;4.05;56.50;92681.09;2055307;69;20093;-75
2023/03/17 03:22:03;;;;;;;;;;;;;;;3.82;55.55;92688.88;2068215;69;20054;-74
2023/03/17 03:24:31;;;;;;;;;;;;;;;3.83;55.36;92673.66;2055497;69;20046;-73
2023/03/17 03:26:58;;;;;;;;;;;;;;;3.91;55.63;92684.75;2055844;69;20086;-74
2023/03/17 03:29:25;;;;;;;;;;;;;;;3.95;54.74;92693.44;2068287;69;20142;-74
2023/03/17 03:31:52;;;;;;;;;;;;;;;3.89;55.50;92701.25;2055701;70;20568;-74
2023/03/17 03:34:18;;;;;;;;;;;;;;;3.85;55.89;92701.69;2055048;69;20153;-74
2023/03/17 03:36:45;;;;;;;;;;;;;;;3.92;55.57;92709.22;2055037;70;20066;-74
2023/03/17 03:39:12;;;;;;;;;;;;;;;3.92;55.40;92711.28;2055253;69;20054;-74
2023/03/17 03:41:40;;;;;;;;;;;;;;;3.97;55.66;92710.31;2055359;69;20443;-74
2023/03/17 03:44:06;;;;;;;;;;;;;;;3.68;56.70;92713.47;2055272;69;20508;-72
2023/03/17 03:46:42;;;;;;;;;;;;;;;3.81;55.74;92716.00;2065479;69;20049;-74
2023/03/17 03:49:13;;;;;;;;;;;;;;;3.86;56.14;92716.34;2055357;69;20900;-73
2023/03/17 03:51:40;;;;;;;;;;;;;;;3.85;56.25;92712.06;2055294;69;20523;-74
2023/03/17 03:54:07;;;;;;;;;;;;;;;3.96;55.46;92712.38;2055646;69;20077;-74
2023/03/17 03:56:38;;;;;;;;;;;;;;;3.87;56.36;92709.47;2055411;69;20062;-74
2023/03/17 03:59:08;;;;;;;;;;;;;;;4.00;55.68;92714.75;2055846;69;20054;-73
2023/03/17 04:01:41;;;;;;;;;;;;;;;3.89;55.90;92702.00;2055615;69;20126;-73
2023/03/17 04:04:08;;;;;;;;;;;;;;;3.98;56.50;92701.38;2055485;69;20061;-74
2023/03/17 04:06:42;;;;;;;;;;;;;;;4.08;55.56;92695.94;2055455;69;20496;-74
2023/03/17 04:09:08;;;;;;;;;;;;;;;4.18;55.19;92679.34;2065671;69;20074;-73
2023/03/17 04:11:35;;;;;;;;;;;;;;;4.21;55.18;92686.53;2055460;70;20484;-74
2023/03/17 04:14:05;;;;;;;;;;;;;;;4.33;54.30;92687.56;2055384;70;20093;-74
2023/03/17 04:16:36;;;;;;;;;;;;;;;4.23;54.91;92690.25;2055109;69;20038;-71
2023/03/17 04:19:04;;;;;;;;;;;;;;;3.75;57.34;92695.22;2055211;70;20056;-73
2023/03/17 04:21:31;;;;;;;;;;;;;;;3.84;56.35;92691.81;2054918;69;20054;-74
2023/03/17 04:23:58;;;;;;;;;;;;;;;4.01;55.87;92696.72;2055041;69;20066;-74
2023/03/17 04:26:23;;;;;;;;;;;;;;;4.03;55.33;92694.09;2054865;70;20531;-74
2023/03/17 04:28:50;;;;;;;;;;;;;;;4.04;55.04;92693.56;2055176;69;20053;-74
2023/03/17 04:31:16;;;;;;;;;;;;;;;4.21;54.70;92678.19;2067903;69;20058;-73
2023/03/17 04:33:42;;;;;;;;;;;;;;;4.24;54.43;92677.78;2054943;70;20105;-73
2023/03/17 04:36:13;;;;;;;;;;;;;;;4.30;55.46;92678.28;2055153;70;20090;-73
2023/03/17 04:38:43;;;;;;;;;;;;;;;4.14;54.89;92681.78;2055342;69;20062;-71
2023/03/17 04:41:09;;;;;;;;;;;;;;;4.34;54.25;92684.19;2055125;69;20042;-73
2023/03/17 04:43:38;;;;;;;;;;;;;;;4.34;54.00;92680.66;2055195;70;20075;-73
2023/03/17 04:46:05;;;;;;;;;;;;;;;4.35;54.01;92684.94;2054927;69;20161;-73
2023/03/17 04:48:34;;;;;;;;;;;;;;;4.38;54.47;92681.00;2055132;69;20138;-73
2023/03/17 04:51:01;;;;;;;;;;;;;;;4.31;54.67;92679.03;2055251;69;20078;-73
2023/03/17 04:53:27;;;;;;;;;;;;;;;4.30;54.76;92681.06;2068446;69;20089;-74
2023/03/17 04:55:53;;;;;;;;;;;;;;;4.33;54.20;92676.41;2068573;69;20065;-73
2023/03/17 04:58:20;;;;;;;;;;;;;;;4.24;54.00;92674.25;2055647;70;20423;-72
2023/03/17 05:00:46;;;;;;;;;;;;;;;4.50;53.10;92670.13;2068590;69;20802;-71
2023/03/17 05:03:12;;;;;;;;;;;;;;;4.65;51.79;92678.34;2055641;69;20089;-73
2023/03/17 05:05:39;;;;;;;;;;;;;;;4.49;53.11;92672.19;2055769;69;20101;-73
2023/03/17 05:08:06;;;;;;;;;;;;;;;4.39;54.02;92676.16;2055836;69;20050;-74
2023/03/17 05:10:32;;;;;;;;;;;;;;;4.45;54.01;92685.06;2065920;69;20431;-72
2023/03/17 05:12:57;;;;;;;;;;;;;;;4.37;54.01;92679.53;2055735;69;20051;-73
2023/03/17 05:15:24;;;;;;;;;;;;;;;4.44;53.20;92677.97;2055903;69;20478;-74
2023/03/17 05:17:50;;;;;;;;;;;;;;;4.37;54.37;92679.53;2055269;69;20165;-73
2023/03/17 05:20:16;;;;;;;;;;;;;;;4.34;54.44;92678.63;2055561;69;20149;-73
2023/03/17 05:22:42;;;;;;;;;;;;;;;4.37;54.38;92681.59;2055579;69;20172;-72
2023/03/17 05:25:09;;;;;;;;;;;;;;;4.26;54.21;92677.19;2055352;69;20065;-73
2023/03/17 05:27:34;;;;;;;;;;;;;;;4.29;54.43;92679.59;2055391;69;20050;-71
2023/03/17 05:30:04;;;;;;;;;;;;;;;4.29;55.64;92676.06;2055621;69;20055;-73
2023/03/17 05:32:30;;;;;;;;;;;;;;;4.46;53.65;92680.94;2068948;69;20057;-73
2023/03/17 05:34:57;;;;;;;;;;;;;;;4.39;54.77;92681.75;2055368;69;20058;-73
2023/03/17 05:37:24;;;;;;;;;;;;;;;4.35;53.57;92684.94;2055347;70;20054;-74
2023/03/17 05:39:51;;;;;;;;;;;;;;;4.22;53.78;92672.06;2068400;69;20058;-72
2023/03/17 05:42:16;;;;;;;;;;;;;;;4.48;52.99;92679.03;2055395;69;20168;-73
2023/03/17 05:44:43;;;;;;;;;;;;;;;4.64;53.51;92682.44;2055424;70;20145;-72
2023/03/17 05:47:09;;;;;;;;;;;;;;;4.73;53.34;92675.47;2055686;70;20416;-72
2023/03/17 05:49:35;;;;;;;;;;;;;;;4.80;52.57;92667.00;2055743;69;20509;-72
2023/03/17 05:52:01;;;;;;;;;;;;;;;4.80;52.19;92661.44;2068366;69;20112;-74
2023/03/17 05:54:27;;;;;;;;;;;;;;;4.47;53.11;92660.13;2055383;70;20082;-72
2023/03/17 05:56:52;;;;;;;;;;;;;;;4.65;52.97;92661.59;2055504;70;20547;-73
2023/03/17 05:59:18;;;;;;;;;;;;;;;4.84;52.12;92658.97;2055856;70;20478;-73
2023/03/17 06:01:43;;;;;;;;;;;;;;;4.93;53.26;92662.41;2055794;70;20076;-73
2023/03/17 06:04:09;;;;;;;;;;;;;;;4.91;52.12;92662.28;2054924;69;20108;-71
2023/03/17 06:06:35;;;;;;;;;;;;;;;5.03;52.75;92668.81;2055642;70;20121;-70
2023/03/17 06:09:00;;;;;;;;;;;;;;;4.90;52.25;92671.94;2055539;70;20051;-71
2023/03/17 06:11:26;;;;;;;;;;;;;;;5.34;51.28;92667.13;2055889;70;20417;-69
2023/03/17 06:13:51;;;;;;;;;;;;;;;5.46;51.68;92669.41;2055855;70;20489;-71
2023/03/17 06:16:17;;;;;;;;;;;;;;;5.40;51.20;92660.53;2055786;70;20074;-73
2023/03/17 06:18:44;;;;;;;;;;;;;;;5.07;51.90;92658.72;2055859;69;20220;-73
2023/03/17 06:21:09;;;;;;;;;;;;;;;5.21;51.59;92661.16;2055685;69;20050;-74
2023/03/17 06:23:35;;;;;;;;;;;;;;;5.02;51.82;92654.13;2055722;70;20042;-74
2023/03/17 06:26:00;;;;;;;;;;;;;;;5.00;52.11;92650.44;2055727;69;20142;-75
2023/03/17 06:28:26;;;;;;;;;;;;;;;5.38;51.03;92655.53;2055694;70;20504;-72
2023/03/17 06:30:55;;;;;;;;;;;;;;;5.68;51.11;92643.22;2065935;69;20394;-74
2023/03/17 06:33:20;;;;;;;;;;;;;;;5.49;50.89;92649.44;2055601;69;20052;-73
2023/03/17 06:35:46;;;;;;;;;;;;;;;5.28;52.08;92660.34;2055879;70;20050;-74
2023/03/17 06:38:12;;;;;;;;;;;;;;;5.50;51.31;92659.31;2055773;69;20089;-73
2023/03/17 06:40:37;;;;;;;;;;;;;;;5.76;50.91;92651.47;2055690;70;20074;-71
2023/03/17 06:43:03;;;;;;;;;;;;;;;5.90;50.82;92655.38;2055784;69;20062;-71
2023/03/17 06:45:28;;;;;;;;;;;;;;;5.97;51.48;92646.16;2055686;69;20546;-72
2023/03/17 06:47:54;;;;;;;;;;;;;;;5.67;51.88;92658.50;2055490;70;20484;-73
2023/03/17 06:50:20;;;;;;;;;;;;;;;5.68;52.63;92656.44;2055589;70;20051;-75
2023/03/17 06:52:45;;;;;;;;;;;;;;;6.10;51.63;92653.44;2055726;70;20050;-73
2023/03/17 06:55:11;;;;;;;;;;;;;;;6.32;51.20;92648.75;2055629;70;20046;-74
2023/03/17 06:57:36;;;;;;;;;;;;;;;6.30;52.07;92648.63;2055506;70;20163;-73
2023/03/17 07:00:05;;;;;;;;;;;;;;;6.47;51.01;92647.78;2055656;70;20105;-74
2023/03/17 07:02:31;;;;;;;;;;;;;;;6.70;51.86;92639.72;2055293;70;20120;-72
2023/03/17 07:04:56;;;;;;;;;;;;;;;6.72;51.62;92644.72;2055697;70;20390;-73
2023/03/17 07:07:23;;;;;;;;;;;;;;;6.95;49.25;92642.22;2055469;69;20097;-73
2023/03/17 07:09:50;;;;;;;;;;;;;;;6.78;50.58;92645.16;2055564;70;20215;-73
2023/03/17 07:12:15;;;;;;;;;;;;;;;7.11;49.08;92637.81;2055516;70;20077;-71
2023/03/17 07:14:41;;;;;;;;;;;;;;;6.88;48.87;92649.47;2055384;70;20410;-72
2023/03/17 07:17:06;;;;;;;;;;;;;;;6.50;48.85;92647.34;2055361;70;20595;-73
2023/03/17 07:19:32;;;;;;;;;;;;;;;6.76;48.66;92640.16;2054564;70;20455;-74
2023/03/17 07:21:57;;;;;;;;;;;;;;;6.77;48.44;92633.22;2055265;70;20248;-73
2023/03/17 07:24:24;;;;;;;;;;;;;;;7.30;47.14;92639.13;2055128;70;20065;-73
2023/03/17 07:26:49;;;;;;;;;;;;;;;7.30;47.02;92642.66;2055362;70;20107;-73
2023/03/17 07:29:15;;;;;;;;;;;;;;;7.09;47.86;92642.50;2055450;70;20070;-73
2023/03/17 07:31:42;;;;;;;;;;;;;;;7.31;48.65;92646.91;2055307;69;20050;-72
2023/03/17 07:34:07;;;;;;;;;;;;;;;7.25;48.94;92646.50;2055432;70;20173;-73
2023/03/17 07:36:32;;;;;;;;;;;;;;;7.39;50.13;92653.13;2055525;70;20251;-75
2023/03/17 07:39:00;;;;;;;;;;;;;;;7.88;48.06;92656.56;2055525;70;20061;-73
2023/03/17 07:41:26;;;;;;;;;;;;;;;7.90;49.08;92658.75;2055702;70;20493;-73
2023/03/17 07:43:51;;;;;;;;;;;;;;;7.80;49.47;92653.19;2055562;70;20090;-73
2023/03/17 07:46:17;;;;;;;;;;;;;;;7.30;47.90;92648.25;2055526;70;20117;-74
2023/03/17 07:48:43;;;;;;;;;;;;;;;7.35;47.83;92640.88;2055532;70;20367;-75
2023/03/17 07:51:13;;;;;;;;;;;;;;;7.62;47.52;92635.09;2055635;69;20074;-75
2023/03/17 07:53:38;;;;;;;;;;;;;;;7.86;48.19;92639.56;2055545;70;20478;-76
2023/03/17 07:56:04;;;;;;;;;;;;;;;7.88;47.65;92639.00;2055552;70;20050;-74
2023/03/17 07:58:30;;;;;;;;;;;;;;;7.96;48.17;92647.94;2067705;69;20084;-74
2023/03/17 08:00:56;;;;;;;;;;;;;;;8.00;47.10;92647.50;2075087;69;20137;-74
2023/03/17 08:03:22;;;;;;;;;;;;;;;8.08;46.42;92640.38;2075167;69;20052;-74
2023/03/17 08:05:56;;;;;;;;;;;;;;;8.17;46.30;92632.53;2075186;69;20103;-74
2023/03/17 08:08:23;;;;;;;;;;;;;;;8.24;45.82;92635.13;2075238;69;20056;-74
2023/03/17 08:10:49;;;;;;;;;;;;;;;8.53;45.98;92637.84;2075183;69;20049;-74
2023/03/17 08:13:14;;;;;;;;;;;;;;;8.80;46.33;92625.56;2075147;69;20110;-73
2023/03/17 08:15:40;;;;;;;;;;;;;;;9.01;45.68;92622.72;2075035;69;20491;-72
2023/03/17 08:18:06;;;;;;;;;;;;;;;9.18;45.38;92626.59;2074959;69;20163;-74
2023/03/17 08:20:33;;;;;;;;;;;;;;;9.19;44.04;92611.94;2071811;69;20491;-74
2023/03/17 08:22:58;;;;;;;;;;;;;;;9.64;43.78;92611.97;2075163;69;20135;-74
2023/03/17 08:25:24;;;;;;;;;;;;;;;10.08;44.23;92618.88;2074966;69;20059;-74
2023/03/17 08:27:50;;;;;;;;;;;;;;;9.97;46.44;92623.13;2075641;69;20051;-74
2023/03/17 08:30:15;;;;;;;;;;;;;;;10.83;44.37;92608.56;2075621;69;20043;-74
2023/03/17 08:32:41;;;;;;;;;;;;;;;11.28;42.15;92602.69;2075392;69;20052;-75
2023/03/17 08:35:10;;;;;;;;;;;;;;;11.51;41.77;92607.50;2075552;69;20072;-74
2023/03/17 08:37:36;;;;;;;;;;;;;;;11.60;41.48;92600.94;2075559;69;20052;-74
2023/03/17 08:40:04;;;;;;;;;;;;;;;12.01;40.53;92595.47;2075516;69;20056;-71
2023/03/17 08:42:29;;;;;;;;;;;;;;;12.75;39.02;92596.47;2075633;69;20472;-74
2023/03/17 08:44:55;;;;;;;;;;;;;;;12.86;38.45;92592.78;2075381;69;20105;-72
2023/03/17 08:47:20;;;;;;;;;;;;;;;13.45;35.70;92590.78;2075501;69;20139;-73
2023/03/17 08:49:46;;;;;;;;;;;;;;;13.73;35.28;92591.41;2075409;69;20048;-72
2023/03/17 08:52:11;;;;;;;;;;;;;;;13.98;34.23;92579.16;2075495;69;20056;-73
2023/03/17 08:54:37;;;;;;;;;;;;;;;13.74;34.13;92569.50;2075716;69;20547;-75
2023/03/17 08:57:03;;;;;;;;;;;;;;;14.08;32.52;92572.50;2075494;69;20466;-75
2023/03/17 08:59:28;;;;;;;;;;;;;;;14.64;30.88;92565.81;2075464;69;20435;-74
2023/03/17 09:01:54;;;;;;;;;;;;;;;14.86;31.00;92568.91;2072180;69;20050;-73
2023/03/17 09:04:22;;;;;;;;;;;;;;;15.55;30.24;92564.63;2075383;69;20145;-74
2023/03/17 09:06:47;;;;;;;;;;;;;;;15.86;30.21;92560.94;2075445;69;20206;-72
2023/03/17 09:09:13;;;;;;;;;;;;;;;15.93;29.14;92560.50;2075414;69;20139;-76
2023/03/17 09:11:39;;;;;;;;;;;;;;;15.95;29.11;92563.44;2075443;69;20052;-74
2023/03/17 09:14:04;;;;;;;;;;;;;;;15.62;30.69;92572.72;2075562;69;20349;-76
2023/03/17 09:16:32;;;;;;;;;;;;;;;15.41;30.46;92573.31;2075683;69;20149;-73
2023/03/17 09:18:58;;;;;;;;;;;;;;;15.43;30.34;92567.69;2075365;69;20138;-75
2023/03/17 09:21:23;;;;;;;;;;;;;;;16.30;29.51;92564.00;2075492;69;20060;-74
2023/03/17 09:23:49;;;;;;;;;;;;;;;16.98;30.01;92557.25;2075543;69;20149;-75
2023/03/17 09:26:15;;;;;;;;;;;;;;;17.08;27.40;92554.03;2075404;69;20435;-75
2023/03/17 09:28:41;;;;;;;;;;;;;;;17.20;28.20;92553.75;2075540;69;20430;-74
2023/03/17 09:31:10;;;;;;;;;;;;;;;17.27;28.17;92552.53;2075621;69;20472;-76
2023/03/17 09:33:36;;;;;;;;;;;;;;;17.21;27.98;92547.38;2075423;69;20056;-75
2023/03/17 09:36:01;;;;;;;;;;;;;;;17.73;28.05;92544.84;2075481;69;20048;-76
2023/03/17 09:38:27;;;;;;;;;;;;;;;18.55;27.40;92538.75;2075354;69;20067;-77
2023/03/17 09:41:11;;;;;;;;;;;;;;;19.17;26.01;92541.91;2075411;69;20057;-76
2023/03/17 09:43:47;;;;;;;;;;;;;;;19.30;25.98;92542.97;2075522;69;20144;-76
2023/03/17 09:46:12;;;;;;;;;;;;;;;19.91;25.05;92538.78;2075452;69;20565;-76
2023/03/17 09:48:52;;;;;;;;;;;;;;;19.88;24.35;92534.41;2075324;69;20048;-76
2023/03/17 09:51:18;;;;;;;;;;;;;;;20.25;24.10;92529.53;2075407;69;20080;-73
2023/03/17 09:54:01;;;;;;;;;;;;;;;20.85;24.88;92523.69;2075444;69;20122;-72
2023/03/17 09:56:29;;;;;;;;;;;;;;;19.81;24.99;92521.41;2075404;69;20044;-75
2023/03/17 09:59:02;;;;;;;;;;;;;;;19.16;25.24;92519.75;2075658;69;20396;-74
2023/03/17 10:01:28;;;;;;;;;;;;;;;18.56;24.08;92510.97;2075399;69;20072;-74
2023/03/17 10:03:53;;;;;;;;;;;;;;;19.79;24.04;92518.47;2075637;69;20052;-74
2023/03/17 10:06:33;;;;;;;;;;;;;;;20.80;23.23;92516.41;2075406;69;20048;-75
2023/03/17 10:09:01;;;;;;;;;;;;;;;21.35;22.75;92503.19;2075411;69;20044;-73
2023/03/17 10:11:33;;;;;;;;;;;;;;;22.01;22.50;92505.69;2075517;69;20056;-77
2023/03/17 10:13:58;;;;;;;;;;;;;;;22.20;21.95;92503.13;2075496;69;20048;-76
2023/03/17 10:16:29;;;;;;;;;;;;;;;20.75;21.77;92498.44;2075388;69;20075;-72
2023/03/17 10:18:57;;;;;;;;;;;;;;;21.70;21.87;92501.63;2075330;69;20492;-72
2023/03/17 10:21:29;;;;;;;;;;;;;;;22.64;22.00;92490.81;2075445;69;20055;-74
2023/03/17 10:23:56;;;;;;;;;;;;;;;22.62;21.13;92488.63;2075594;69;20499;-74
2023/03/17 10:26:25;;;;;;;;;;;;;;;23.47;19.53;92483.13;2075343;69;20052;-73
2023/03/17 10:28:52;;;;;;;;;;;;;;;23.80;20.03;92489.19;2075490;69;20334;-73
2023/03/17 10:31:18;;;;;;;;;;;;;;;23.71;19.58;92482.66;2072000;69;20155;-73
2023/03/17 10:33:47;;;;;;;;;;;;;;;23.10;20.69;92475.59;2075289;69;20052;-73
2023/03/17 10:36:16;;;;;;;;;;;;;;;22.46;20.29;92465.50;2075382;69;20053;-73
2023/03/17 10:38:53;;;;;;;;;;;;;;;23.11;19.96;92463.41;2072003;69;20122;-73
2023/03/17 10:41:19;;;;;;;;;;;;;;;22.99;19.89;92463.97;2075412;69;20550;-74
2023/03/17 10:43:46;;;;;;;;;;;;;;;23.17;20.66;92454.13;2075407;69;20084;-75
2023/03/17 10:46:31;;;;;;;;;;;;;;;24.69;19.39;92457.41;2075239;69;20502;-76
2023/03/17 10:49:08;;;;;;;;;;;;;;;26.13;18.25;92446.91;2074709;69;20060;-74
2023/03/17 10:51:35;;;;;;;;;;;;;;;27.43;17.14;92440.66;2074725;69;20492;-74
2023/03/17 10:54:06;;;;;;;;;;;;;;;27.85;16.83;92444.72;2071449;69;20092;-78
2023/03/17 10:56:34;;;;;;;;;;;;;;;28.08;17.50;92448.88;2074894;69;20165;-75
2023/03/17 10:59:04;;;;;;;;;;;;;;;27.17;17.53;92432.13;2074733;69;20483;-75
2023/03/17 11:01:38;;;;;;;;;;;;;;;28.32;15.74;92441.44;2074702;69;20059;-76
2023/03/17 11:04:17;;;;;;;;;;;;;;;26.24;17.53;92428.13;2074915;69;20055;-74
2023/03/17 11:06:46;;;;;;;;;;;;;;;26.74;16.23;92433.03;2075235;69;20060;-74
2023/03/17 11:09:18;;;;;;;;;;;;;;;29.86;15.25;92435.19;2071975;69;20401;-74
2023/03/17 11:11:44;;;;;;;;;;;;;;;28.15;16.05;92437.25;2075381;69;20048;-74
2023/03/17 11:14:19;;;;;;;;;;;;;;;29.97;15.24;92433.59;2075225;69;20058;-74
2023/03/17 11:16:55;;;;;;;;;;;;;;;28.12;15.67;92425.69;2075232;69;20044;-75
2023/03/17 11:19:26;;;;;;;;;;;;;;;28.42;15.92;92418.19;2075174;69;20055;-74
2023/03/17 11:21:58;;;;;;;;;;;;;;;30.53;14.17;92425.38;2075307;69;20052;-75
2023/03/17 11:24:28;;;;;;;;;;;;;;;27.45;14.60;92414.66;2075247;69;20059;-74
2023/03/17 11:26:54;;;;;;;;;;;;;;;27.85;14.90;92404.94;2075179;69;20051;-74
2023/03/17 11:29:31;;;;;;;;;;;;;;;28.99;14.84;92397.28;2071880;69;20044;-75
2023/03/17 11:31:57;;;;;;;;;;;;;;;29.63;15.22;92389.13;2075248;69;20048;-74
2023/03/17 11:34:40;;;;;;;;;;;;;;;30.84;14.16;92393.59;2075007;69;20532;-74
2023/03/17 11:37:24;;;;;;;;;;;;;;;31.12;13.97;92383.56;2075151;69;20052;-75
2023/03/17 11:40:09;;;;;;;;;;;;;;;31.26;14.59;92376.72;2071859;69;20084;-74
2023/03/17 11:42:37;;;;;;;;;;;;;;;32.12;13.67;92377.66;2075373;69;20052;-75
2023/03/17 11:45:07;;;;;;;;;;;;;;;32.48;13.97;92378.19;2075142;69;20068;-74
2023/03/17 11:47:37;;;;;;;;;;;;;;;32.38;14.15;92382.09;2075106;69;20055;-74
2023/03/17 11:50:05;;;;;;;;;;;;;;;32.00;13.77;92375.75;2075249;69;20051;-76
2023/03/17 11:52:37;;;;;;;;;;;;;;;33.12;12.97;92374.97;2075182;69;20476;-75
2023/03/17 11:55:03;;;;;;;;;;;;;;;34.46;13.00;92370.06;2075230;69;20104;-76
2023/03/17 11:57:29;;;;;;;;;;;;;;;31.51;13.70;92365.25;2075294;69;20044;-77
2023/03/17 12:00:14;;;;;;;;;;;;;;;31.70;13.45;92361.91;2075350;69;20132;-77
2023/03/17 12:02:42;;;;;;;;;;;;;;;32.78;13.81;92368.63;2072100;69;20507;-76
2023/03/17 12:05:14;;;;;;;;;;;;;;;32.42;13.87;92360.88;2075132;69;20064;-78
2023/03/17 12:07:43;;;;;;;;;;;;;;;30.96;14.57;92351.91;2075032;69;20051;-76
2023/03/17 12:10:33;;;;;;;;;;;;;;;30.62;14.57;92354.03;2075146;69;20056;-78
2023/03/17 12:13:01;;;;;;;;;;;;;;;30.08;14.21;92352.88;2075182;69;20075;-79
2023/03/17 12:15:33;;;;;;;;;;;;;;;29.66;15.87;92345.63;2075168;69;20113;-79
2023/03/17 12:18:14;;;;;;;;;;;;;;;30.19;16.19;92341.81;2074980;69;20083;-77
2023/03/17 12:20:43;;;;;;;;;;;;;;;30.70;14.79;92349.53;2075235;69;20116;-76
2023/03/17 12:23:35;;;;;;;;;;;;;;;27.50;16.45;92340.91;2071831;69;20177;-77
2023/03/17 12:26:11;;;;;;;;;;;;;;;30.39;16.20;92341.44;2074370;69;20554;-75
2023/03/17 12:28:41;;;;;;;;;;;;;;;31.55;14.63;92336.06;2075167;69;20118;-77
2023/03/17 12:31:11;;;;;;;;;;;;;;;31.75;15.07;92334.88;2075384;69;20040;-75
2023/03/17 12:33:42;;;;;;;;;;;;;;;32.04;14.28;92328.38;2071985;69;20056;-75
2023/03/17 12:36:10;;;;;;;;;;;;;;;32.74;13.99;92327.22;2059145;69;20141;-77
2023/03/17 12:38:55;;;;;;;;;;;;;;;31.46;14.82;92320.28;2055490;69;20477;-77
2023/03/17 12:41:27;;;;;;;;;;;;;;;30.22;14.78;92311.28;2055655;69;20046;-75
2023/03/17 12:43:52;;;;;;;;;;;;;;;32.20;13.88;92312.66;2055503;70;20449;-76
2023/03/17 12:46:21;;;;;;;;;;;;;;;33.51;12.79;92303.81;2055436;69;20065;-78
2023/03/17 12:48:55;;;;;;;;;;;;;;;35.24;13.44;92302.94;2055481;70;20043;-77
2023/03/17 12:51:47;;;;;;;;;;;;;;;32.64;14.42;92299.09;2055593;70;20104;-76
2023/03/17 12:54:17;;;;;;;;;;;;;;;35.15;11.71;92299.63;2054873;69;20062;-77
2023/03/17 12:56:45;;;;;;;;;;;;;;;34.78;11.70;92288.56;2055384;70;20120;-76
2023/03/17 12:59:16;;;;;;;;;;;;;;;32.38;12.61;92283.78;2055557;70;20078;-74
2023/03/17 13:01:53;;;;;;;;;;;;;;;34.40;12.00;92288.41;2068612;69;20469;-77